createdAt,value
2023-02-13T00:00:14.679Z,23.65
2023-02-13T00:00:58.141Z,24.63
2023-02-13T00:01:50.592Z,25.00
2023-02-13T00:02:45.920Z,26.27
2023-02-13T00:03:31.490Z,22.55
2023-02-13T00:04:20.061Z,23.13
2023-02-13T00:05:07.962Z,25.33
2023-02-13T00:05:49.690Z,23.58
2023-02-13T00:06:33.477Z,23.50
2023-02-13T00:07:20.994Z,24.27
2023-02-13T00:08:08.251Z,25.17
2023-02-13T00:09:04.682Z,22.83
2023-02-13T00:09:56.794Z,22.10
2023-02-13T00:10:43.560Z,20.75
2023-02-13T00:11:32.706Z,21.58
2023-02-13T00:12:28.856Z,23.10
2023-02-13T00:13:15.648Z,22.83
2023-02-13T00:13:58.445Z,22.50
2023-02-13T00:14:40.453Z,25.40
2023-02-13T00:15:36.736Z,24.70
2023-02-13T00:16:19.967Z,21.88
2023-02-13T00:17:01.906Z,22.80
2023-02-13T00:17:48.457Z,24.55
2023-02-13T00:18:44.878Z,22.00
2023-02-13T00:19:43.578Z,23.60
2023-02-13T00:20:25.280Z,26.17
2023-02-13T00:21:15.198Z,24.95
2023-02-13T00:22:02.949Z,24.73
2023-02-13T00:22:49.095Z,25.20
2023-02-13T00:23:35.278Z,26.98
2023-02-13T00:24:22.486Z,23.95
2023-02-13T00:25:07.979Z,26.70
2023-02-13T00:26:09.872Z,24.23
2023-02-13T00:26:53.168Z,23.83
2023-02-13T00:27:42.584Z,25.95
2023-02-13T00:28:27.580Z,25.92
2023-02-13T00:29:12.327Z,23.80
2023-02-13T00:30:04.418Z,25.73
2023-02-13T00:30:46.665Z,25.95
2023-02-13T00:31:36.557Z,26.98
2023-02-13T00:32:19.731Z,24.83
2023-02-13T00:33:10.329Z,26.70
2023-02-13T00:33:57.913Z,28.23
2023-02-13T00:34:39.622Z,25.92
2023-02-13T00:35:26.796Z,25.38
2023-02-13T00:36:24.448Z,25.95
2023-02-13T00:37:07.566Z,25.85
2023-02-13T00:37:51.577Z,26.17
2023-02-13T00:38:50.468Z,26.90
2023-02-13T00:39:35.139Z,28.13
2023-02-13T00:40:19.855Z,27.95
2023-02-13T00:41:12.329Z,28.33
2023-02-13T00:42:04.125Z,26.35
2023-02-13T00:42:45.787Z,28.40
2023-02-13T00:43:28.096Z,26.75
2023-02-13T00:44:17.525Z,29.42
2023-02-13T00:45:11.676Z,27.38
2023-02-13T00:45:59.626Z,33.25
2023-02-13T00:46:58.850Z,29.63
2023-02-13T00:47:40.602Z,28.38
2023-02-13T00:48:40.780Z,27.15
2023-02-13T00:49:22.827Z,26.65
2023-02-13T00:50:04.996Z,28.65
2023-02-13T00:51:03.470Z,28.98
2023-02-13T00:51:56.356Z,30.02
2023-02-13T00:52:38.018Z,27.98
2023-02-13T00:53:31.789Z,25.80
2023-02-13T00:54:23.662Z,26.30
2023-02-13T00:55:08.466Z,27.23
2023-02-13T00:55:52.272Z,29.58
2023-02-13T00:56:45.422Z,29.63
2023-02-13T00:57:33.018Z,26.42
2023-02-13T00:58:35.042Z,26.33
2023-02-13T00:59:25.488Z,31.27
2023-02-13T01:00:13.679Z,29.30
2023-02-13T01:01:05.545Z,31.27
2023-02-13T01:02:01.616Z,30.95
2023-02-13T01:02:44.454Z,27.95
2023-02-13T01:03:28.900Z,32.22
2023-02-13T01:04:20.402Z,26.65
2023-02-13T01:05:11.323Z,30.40
2023-02-13T01:06:01.988Z,26.75
2023-02-13T01:07:15.753Z,30.75
2023-02-13T01:08:03.838Z,31.60
2023-02-13T01:08:48.156Z,32.35
2023-02-13T01:10:49.627Z,30.52
2023-02-13T01:11:43.163Z,30.73
2023-02-13T01:12:31.925Z,28.17
2023-02-13T01:13:20.982Z,28.80
2023-02-13T01:14:10.143Z,28.38
2023-02-13T01:14:52.545Z,30.13
2023-02-13T01:15:37.391Z,30.27
2023-02-13T01:16:32.317Z,27.73
2023-02-13T01:17:25.869Z,26.45
2023-02-13T01:18:13.351Z,26.55
2023-02-13T01:18:57.637Z,30.17
2023-02-13T01:19:45.322Z,28.23
2023-02-13T01:20:35.846Z,27.58
2023-02-13T01:21:24.424Z,28.50
2023-02-13T01:22:16.883Z,28.50
2023-02-13T01:22:58.904Z,27.17
2023-02-13T01:23:48.235Z,25.40
2023-02-13T01:24:34.203Z,25.60
2023-02-13T01:25:18.536Z,26.58
2023-02-13T01:26:11.772Z,26.25
2023-02-13T01:26:53.481Z,24.98
2023-02-13T01:27:47.238Z,24.40
2023-02-13T01:28:38.623Z,26.73
2023-02-13T01:29:26.650Z,24.48
2023-02-13T01:30:15.461Z,25.23
2023-02-13T01:30:58.478Z,22.77
2023-02-13T01:31:45.660Z,21.55
2023-02-13T01:32:33.295Z,25.83
2023-02-13T01:33:19.354Z,23.25
2023-02-13T01:34:01.037Z,21.17
2023-02-13T01:34:46.732Z,23.25
2023-02-13T01:35:40.123Z,23.58
2023-02-13T01:36:30.737Z,22.83
2023-02-13T01:37:15.021Z,24.27
2023-02-13T01:37:56.749Z,24.23
2023-02-13T01:38:41.724Z,24.83
2023-02-13T01:39:28.303Z,22.80
2023-02-13T01:40:17.222Z,21.67
2023-02-13T01:41:00.809Z,24.88
2023-02-13T01:41:42.524Z,21.60
2023-02-13T01:42:40.885Z,19.40
2023-02-13T01:43:27.987Z,20.95
2023-02-13T01:44:51.730Z,21.27
2023-02-13T01:45:37.181Z,24.50
2023-02-13T01:46:45.067Z,24.63
2023-02-13T01:47:41.063Z,23.80
2023-02-13T01:48:32.952Z,24.20
2023-02-13T01:49:28.508Z,23.15
2023-02-13T01:50:18.757Z,23.42
2023-02-13T01:51:17.458Z,22.00
2023-02-13T01:51:59.138Z,23.65
2023-02-13T01:52:54.008Z,21.98
2023-02-13T01:54:05.658Z,23.38
2023-02-13T01:54:58.268Z,22.33
2023-02-13T01:55:50.942Z,21.48
2023-02-13T01:56:46.943Z,21.63
2023-02-13T01:57:56.757Z,21.70
2023-02-13T01:58:55.907Z,22.75
2023-02-13T02:00:18.364Z,22.48
2023-02-13T02:01:05.864Z,20.23
2023-02-13T02:02:00.957Z,20.95
2023-02-13T02:02:53.150Z,22.23
2023-02-13T02:03:52.451Z,22.13
2023-02-13T02:04:41.771Z,23.05
2023-02-13T02:05:33.581Z,21.27
2023-02-13T02:06:25.699Z,23.15
2023-02-13T02:07:34.175Z,23.83
2023-02-13T02:08:46.051Z,21.90
2023-02-13T02:09:46.318Z,23.02
2023-02-13T02:10:33.974Z,22.95
2023-02-13T02:11:28.602Z,22.63
2023-02-13T02:12:21.358Z,21.35
2023-02-13T02:13:18.055Z,22.27
2023-02-13T02:14:05.027Z,24.00
2023-02-13T02:14:58.530Z,20.40
2023-02-13T02:15:51.088Z,22.00
2023-02-13T02:16:37.876Z,19.70
2023-02-13T02:17:21.603Z,23.60
2023-02-13T02:18:31.979Z,21.90
2023-02-13T02:19:42.534Z,21.73
2023-02-13T02:20:48.575Z,24.25
2023-02-13T02:21:52.242Z,23.25
2023-02-13T02:23:18.263Z,22.98
2023-02-13T02:24:29.348Z,22.58
2023-02-13T02:25:50.535Z,22.80
2023-02-13T02:26:56.928Z,20.70
2023-02-13T02:28:06.197Z,23.05
2023-02-13T02:29:31.014Z,20.38
2023-02-13T02:30:43.175Z,21.25
2023-02-13T02:32:01.527Z,20.92
2023-02-13T02:33:07.691Z,22.13
2023-02-13T02:34:10.487Z,21.15
2023-02-13T02:35:20.496Z,21.55
2023-02-13T02:36:33.454Z,20.58
2023-02-13T02:37:18.476Z,20.85
2023-02-13T02:38:19.169Z,21.60
2023-02-13T02:39:19.728Z,19.90
2023-02-13T02:40:33.512Z,21.77
2023-02-13T02:41:47.334Z,22.13
2023-02-13T02:43:00.884Z,21.00
2023-02-13T02:44:00.505Z,20.40
2023-02-13T02:44:52.758Z,22.25
2023-02-13T02:46:04.328Z,19.55
2023-02-13T02:47:37.317Z,20.80
2023-02-13T02:48:57.719Z,21.60
2023-02-13T02:50:01.941Z,21.37
2023-02-13T02:50:48.666Z,20.83
2023-02-13T02:51:43.026Z,19.60
2023-02-13T02:53:11.040Z,20.27
2023-02-13T02:54:02.731Z,21.38
2023-02-13T02:55:10.223Z,20.30
2023-02-13T02:56:30.868Z,22.50
2023-02-13T02:57:53.931Z,21.40
2023-02-13T02:59:00.674Z,19.95
2023-02-13T03:00:31.538Z,21.47
2023-02-13T03:01:43.613Z,20.67
2023-02-13T03:02:50.753Z,17.27
2023-02-13T03:03:55.542Z,19.80
2023-02-13T03:05:09.692Z,22.10
2023-02-13T03:06:10.554Z,18.63
2023-02-13T03:07:15.729Z,16.92
2023-02-13T03:07:57.462Z,18.97
2023-02-13T03:09:06.291Z,18.90
2023-02-13T03:10:17.411Z,20.85
2023-02-13T03:11:19.115Z,20.85
2023-02-13T03:12:30.772Z,19.65
2023-02-13T03:13:24.549Z,21.05
2023-02-13T03:14:14.025Z,21.05
2023-02-13T03:15:04.039Z,19.67
2023-02-13T03:16:22.573Z,19.50
2023-02-13T03:17:31.308Z,18.15
2023-02-13T03:18:32.853Z,19.40
2023-02-13T03:19:52.467Z,19.50
2023-02-13T03:21:06.144Z,19.92
2023-02-13T03:22:08.324Z,20.23
2023-02-13T03:23:15.111Z,18.27
2023-02-13T03:24:23.234Z,18.42
2023-02-13T03:25:40.359Z,22.00
2023-02-13T03:26:46.019Z,16.77
2023-02-13T03:28:06.407Z,19.38
2023-02-13T03:29:21.594Z,18.10
2023-02-13T03:30:51.306Z,19.90
2023-02-13T03:31:43.168Z,20.97
2023-02-13T03:32:41.613Z,21.93
2023-02-13T03:33:40.865Z,21.10
2023-02-13T03:34:51.247Z,21.50
2023-02-13T03:36:15.913Z,23.40
2023-02-13T03:37:28.364Z,20.60
2023-02-13T03:38:48.671Z,21.27
2023-02-13T03:40:05.486Z,21.40
2023-02-13T03:41:19.508Z,21.00
2023-02-13T03:42:15.807Z,19.77
2023-02-13T03:43:14.341Z,19.70
2023-02-13T03:44:03.614Z,18.60
2023-02-13T03:45:24.429Z,21.42
2023-02-13T03:46:22.379Z,18.93
2023-02-13T03:47:06.861Z,21.40
2023-02-13T03:47:52.725Z,21.48
2023-02-13T03:49:00.131Z,20.13
2023-02-13T03:50:07.925Z,19.57
2023-02-13T03:50:53.170Z,20.17
2023-02-13T03:52:05.469Z,19.80
2023-02-13T03:53:06.247Z,23.03
2023-02-13T03:54:03.829Z,21.87
2023-02-13T03:55:15.023Z,20.15
2023-02-13T03:56:27.981Z,21.60
2023-02-13T03:57:53.476Z,20.30
2023-02-13T03:59:09.092Z,20.83
2023-02-13T03:59:53.914Z,20.67
2023-02-13T04:00:46.539Z,20.70
2023-02-13T04:01:41.419Z,20.33
2023-02-13T04:02:42.628Z,20.08
2023-02-13T04:03:31.929Z,20.03
2023-02-13T04:05:04.774Z,19.75
2023-02-13T04:05:54.376Z,19.50
2023-02-13T04:06:58.134Z,19.80
2023-02-13T04:07:39.945Z,21.27
2023-02-13T04:08:37.316Z,20.07
2023-02-13T04:09:19.183Z,20.27
2023-02-13T04:10:12.644Z,21.25
2023-02-13T04:11:07.572Z,20.53
2023-02-13T04:12:01.232Z,20.17
2023-02-13T04:13:07.750Z,20.25
2023-02-13T04:14:02.409Z,18.90
2023-02-13T04:14:49.265Z,20.83
2023-02-13T04:15:53.990Z,19.57
2023-02-13T04:16:55.668Z,18.57
2023-02-13T04:18:07.853Z,20.20
2023-02-13T04:18:55.743Z,18.15
2023-02-13T04:19:57.591Z,18.60
2023-02-13T04:20:43.389Z,19.70
2023-02-13T04:21:37.919Z,19.40
2023-02-13T04:22:25.349Z,18.27
2023-02-13T04:23:09.886Z,19.70
2023-02-13T04:23:54.476Z,19.33
2023-02-13T04:24:39.001Z,20.10
2023-02-13T04:25:20.832Z,20.70
2023-02-13T04:26:28.319Z,18.42
2023-02-13T04:27:20.666Z,20.73
2023-02-13T04:28:05.579Z,18.33
2023-02-13T04:28:48.587Z,19.70
2023-02-13T04:29:33.154Z,19.17
2023-02-13T04:30:16.526Z,17.65
2023-02-13T04:31:09.815Z,19.50
2023-02-13T04:31:54.478Z,20.20
2023-02-13T04:32:42.027Z,19.92
2023-02-13T04:33:26.045Z,18.13
2023-02-13T04:34:07.872Z,19.88
2023-02-13T04:34:56.761Z,21.92
2023-02-13T04:36:55.656Z,18.27
2023-02-13T04:37:40.020Z,20.25
2023-02-13T04:38:24.419Z,20.27
2023-02-13T04:39:14.885Z,21.25
2023-02-13T04:39:58.796Z,20.40
2023-02-13T04:40:43.172Z,20.27
2023-02-13T04:41:24.894Z,21.00
2023-02-13T04:42:17.745Z,18.35
2023-02-13T04:43:04.738Z,20.58
2023-02-13T04:44:01.070Z,18.77
2023-02-13T04:44:53.081Z,17.20
2023-02-13T04:45:34.903Z,19.83
2023-02-13T04:46:17.871Z,19.05
2023-02-13T04:47:08.398Z,19.98
2023-02-13T04:48:02.571Z,18.98
2023-02-13T04:48:47.582Z,18.73
2023-02-13T04:49:38.812Z,21.77
2023-02-13T04:50:26.092Z,20.73
2023-02-13T04:51:09.460Z,21.30
2023-02-13T04:51:51.168Z,18.80
2023-02-13T04:52:32.982Z,23.58
2023-02-13T04:53:17.296Z,21.50
2023-02-13T04:54:16.625Z,20.42
2023-02-13T04:55:00.879Z,22.00
2023-02-13T04:55:47.602Z,21.88
2023-02-13T04:56:32.287Z,22.98
2023-02-13T04:57:20.667Z,23.48
2023-02-13T04:58:12.577Z,22.08
2023-02-13T04:58:59.845Z,23.35
2023-02-13T04:59:47.117Z,22.05
2023-02-13T05:00:29.295Z,20.63
2023-02-13T05:01:18.528Z,20.92
2023-02-13T05:02:00.250Z,19.42
2023-02-13T05:02:46.143Z,19.95
2023-02-13T05:03:30.768Z,20.90
2023-02-13T05:04:17.534Z,21.80
2023-02-13T05:05:04.895Z,21.88
2023-02-13T05:05:49.722Z,20.70
2023-02-13T05:06:33.113Z,20.40
2023-02-13T05:07:17.954Z,19.95
2023-02-13T05:08:19.874Z,22.55
2023-02-13T05:09:07.279Z,30.83
2023-02-13T05:09:56.443Z,25.48
2023-02-13T05:10:42.171Z,22.67
2023-02-13T05:11:26.200Z,20.60
2023-02-13T05:12:17.774Z,18.27
2023-02-13T05:13:05.381Z,19.75
2023-02-13T05:13:47.039Z,17.63
2023-02-13T05:14:35.532Z,19.15
2023-02-13T05:15:22.490Z,19.00
2023-02-13T05:16:04.334Z,21.17
2023-02-13T05:17:03.814Z,20.42
2023-02-13T05:17:49.388Z,20.70
2023-02-13T05:18:44.324Z,19.25
2023-02-13T05:19:26.081Z,21.35
2023-02-13T05:20:17.169Z,20.58
2023-02-13T05:21:17.471Z,19.70
2023-02-13T05:22:20.657Z,19.08
2023-02-13T05:23:24.970Z,22.77
2023-02-13T05:24:10.827Z,18.88
2023-02-13T05:24:52.474Z,19.35
2023-02-13T05:25:35.461Z,20.05
2023-02-13T05:26:17.103Z,21.50
2023-02-13T05:27:01.545Z,20.30
2023-02-13T05:27:46.229Z,18.77
2023-02-13T05:28:49.504Z,18.88
2023-02-13T05:29:31.183Z,19.58
2023-02-13T05:30:13.684Z,21.27
2023-02-13T05:31:01.540Z,19.38
2023-02-13T05:31:43.611Z,20.08
2023-02-13T05:32:30.958Z,21.60
2023-02-13T05:33:19.541Z,20.35
2023-02-13T05:34:03.681Z,22.13
2023-02-13T05:34:50.035Z,22.35
2023-02-13T05:35:33.982Z,19.90
2023-02-13T05:37:36.111Z,20.52
2023-02-13T05:38:20.820Z,19.25
2023-02-13T05:39:12.396Z,21.80
2023-02-13T05:39:56.865Z,19.38
2023-02-13T05:40:46.234Z,20.92
2023-02-13T05:41:30.749Z,21.90
2023-02-13T05:42:16.461Z,19.45
2023-02-13T05:43:03.837Z,20.13
2023-02-13T05:43:50.555Z,20.67
2023-02-13T05:44:37.199Z,23.42
2023-02-13T05:45:26.581Z,21.55
2023-02-13T05:46:10.258Z,22.53
2023-02-13T05:46:53.274Z,22.88
2023-02-13T05:47:37.847Z,22.83
2023-02-13T05:48:31.878Z,19.73
2023-02-13T05:49:23.436Z,20.55
2023-02-13T05:50:05.917Z,20.23
2023-02-13T05:50:58.285Z,21.60
2023-02-13T05:51:50.699Z,23.77
2023-02-13T05:52:36.704Z,25.50
2023-02-13T05:53:18.403Z,22.05
2023-02-13T05:54:00.206Z,23.35
2023-02-13T05:54:47.752Z,23.40
2023-02-13T05:55:38.687Z,22.05
2023-02-13T05:56:26.532Z,23.90
2023-02-13T05:57:08.228Z,24.08
2023-02-13T05:58:05.167Z,22.15
2023-02-13T05:58:46.931Z,22.88
2023-02-13T05:59:30.029Z,21.88
2023-02-13T06:00:14.701Z,21.10
2023-02-13T06:01:00.765Z,24.05
2023-02-13T06:01:46.779Z,21.48
2023-02-13T06:02:40.535Z,22.05
2023-02-13T06:03:29.002Z,20.48
2023-02-13T06:04:13.891Z,20.52
2023-02-13T06:04:55.666Z,19.25
2023-02-13T06:05:37.354Z,20.80
2023-02-13T06:06:22.773Z,20.77
2023-02-13T06:07:05.460Z,20.45
2023-02-13T06:07:55.616Z,20.23
2023-02-13T06:08:40.120Z,19.83
2023-02-13T06:09:27.151Z,20.10
2023-02-13T06:10:18.559Z,19.45
2023-02-13T06:11:00.660Z,20.13
2023-02-13T06:11:45.227Z,19.05
2023-02-13T06:12:26.863Z,19.00
2023-02-13T06:13:14.150Z,18.83
2023-02-13T06:13:58.693Z,19.48
2023-02-13T06:14:48.891Z,18.77
2023-02-13T06:15:38.435Z,18.95
2023-02-13T06:16:26.884Z,18.75
2023-02-13T06:17:08.675Z,18.35
2023-02-13T06:17:58.610Z,20.13
2023-02-13T06:18:43.462Z,18.88
2023-02-13T06:19:29.359Z,18.67
2023-02-13T06:20:15.582Z,17.73
2023-02-13T06:20:57.675Z,17.75
2023-02-13T06:21:44.267Z,17.65
2023-02-13T06:22:33.543Z,18.55
2023-02-13T06:23:20.915Z,19.35
2023-02-13T06:24:05.886Z,17.55
2023-02-13T06:24:50.250Z,19.48
2023-02-13T06:25:43.839Z,21.25
2023-02-13T06:26:25.548Z,18.95
2023-02-13T06:27:07.239Z,18.35
2023-02-13T06:27:53.748Z,18.13
2023-02-13T06:28:41.495Z,19.83
2023-02-13T06:29:26.275Z,18.90
2023-02-13T06:30:08.532Z,16.33
2023-02-13T06:30:55.824Z,17.85
2023-02-13T06:31:40.371Z,18.90
2023-02-13T06:32:30.303Z,19.83
2023-02-13T06:33:15.095Z,20.40
2023-02-13T06:34:08.565Z,19.08
2023-02-13T06:34:53.060Z,21.30
2023-02-13T06:35:37.935Z,19.92
2023-02-13T06:36:25.724Z,20.42
2023-02-13T06:37:09.687Z,21.27
2023-02-13T06:37:51.428Z,20.63
2023-02-13T06:38:41.631Z,18.02
2023-02-13T06:39:26.082Z,20.95
2023-02-13T06:40:12.891Z,23.45
2023-02-13T06:41:00.900Z,21.80
2023-02-13T06:41:47.902Z,18.50
2023-02-13T06:42:31.709Z,25.88
2023-02-13T06:43:37.783Z,21.25
2023-02-13T06:44:24.427Z,19.05
2023-02-13T06:45:09.888Z,20.55
2023-02-13T06:45:55.012Z,20.48
2023-02-13T06:46:52.982Z,21.45
2023-02-13T06:47:50.299Z,24.08
2023-02-13T06:48:32.034Z,18.80
2023-02-13T06:49:21.030Z,17.48
2023-02-13T06:50:16.613Z,20.25
2023-02-13T06:51:06.924Z,20.95
2023-02-13T06:51:50.880Z,19.25
2023-02-13T06:52:32.600Z,21.90
2023-02-13T06:53:16.615Z,20.05
2023-02-13T06:54:00.815Z,22.02
2023-02-13T06:54:52.282Z,20.27
2023-02-13T06:55:34.033Z,20.60
2023-02-13T06:56:17.148Z,21.20
2023-02-13T06:57:04.542Z,18.63
2023-02-13T06:57:49.345Z,20.10
2023-02-13T06:58:37.891Z,20.85
2023-02-13T06:59:23.747Z,22.85
2023-02-13T07:00:18.196Z,20.92
2023-02-13T07:01:13.745Z,20.70
2023-02-13T07:02:03.045Z,20.52
2023-02-13T07:02:46.650Z,20.38
2023-02-13T07:03:45.249Z,21.00
2023-02-13T07:04:29.949Z,20.00
2023-02-13T07:05:12.087Z,19.23
2023-02-13T07:06:00.141Z,17.15
2023-02-13T07:06:49.780Z,17.77
2023-02-13T07:07:46.936Z,21.17
2023-02-13T07:08:29.308Z,19.85
2023-02-13T07:09:16.045Z,18.08
2023-02-13T07:10:00.783Z,20.85
2023-02-13T07:10:42.618Z,20.52
2023-02-13T07:11:25.402Z,18.10
2023-02-13T07:12:13.924Z,21.30
2023-02-13T07:13:06.507Z,18.08
2023-02-13T07:13:50.527Z,21.10
2023-02-13T07:14:32.283Z,19.33
2023-02-13T07:15:17.023Z,19.23
2023-02-13T07:16:01.263Z,18.58
2023-02-13T07:16:45.460Z,20.65
2023-02-13T07:17:37.352Z,21.67
2023-02-13T07:18:23.382Z,20.75
2023-02-13T07:19:16.603Z,19.58
2023-02-13T07:20:04.703Z,18.67
2023-02-13T07:20:52.889Z,20.25
2023-02-13T07:21:38.012Z,21.20
2023-02-13T07:22:30.039Z,18.25
2023-02-13T07:23:15.765Z,21.08
2023-02-13T07:23:57.448Z,19.98
2023-02-13T07:24:50.496Z,19.50
2023-02-13T07:25:47.105Z,20.40
2023-02-13T07:26:52.927Z,18.27
2023-02-13T07:27:36.572Z,18.65
2023-02-13T07:28:22.241Z,19.02
2023-02-13T07:29:12.136Z,20.48
2023-02-13T07:29:56.456Z,18.75
2023-02-13T07:31:05.113Z,18.23
2023-02-13T07:31:52.571Z,20.67
2023-02-13T07:32:41.076Z,18.13
2023-02-13T07:33:24.396Z,20.00
2023-02-13T07:34:07.671Z,18.67
2023-02-13T07:35:01.255Z,18.33
2023-02-13T07:35:52.494Z,21.77
2023-02-13T07:36:34.290Z,21.02
2023-02-13T07:37:16.007Z,16.60
2023-02-13T07:38:00.835Z,19.77
2023-02-13T07:38:47.928Z,17.27
2023-02-13T07:39:31.701Z,18.88
2023-02-13T07:40:13.527Z,19.27
2023-02-13T07:40:55.791Z,18.88
2023-02-13T07:41:37.714Z,19.00
2023-02-13T07:42:24.941Z,18.75
2023-02-13T07:43:18.171Z,18.25
2023-02-13T07:44:09.137Z,19.35
2023-02-13T07:44:50.868Z,17.30
2023-02-13T07:45:34.513Z,16.83
2023-02-13T07:46:16.295Z,20.50
2023-02-13T07:47:05.691Z,18.38
2023-02-13T07:47:50.220Z,18.13
2023-02-13T07:48:43.525Z,18.88
2023-02-13T07:49:29.058Z,19.23
2023-02-13T07:51:15.590Z,18.52
2023-02-13T07:52:00.388Z,17.17
2023-02-13T07:52:43.368Z,16.98
2023-02-13T07:53:31.593Z,17.95
2023-02-13T07:54:22.336Z,16.77
2023-02-13T07:55:08.932Z,16.77
2023-02-13T07:55:50.613Z,16.10
2023-02-13T07:56:47.922Z,16.02
2023-02-13T07:57:34.544Z,17.50
2023-02-13T07:58:18.420Z,15.65
2023-02-13T07:59:08.599Z,16.90
2023-02-13T08:00:05.209Z,14.82
2023-02-13T08:01:00.120Z,18.25
2023-02-13T08:01:44.640Z,16.95
2023-02-13T08:02:26.364Z,16.83
2023-02-13T08:03:25.324Z,17.92
2023-02-13T08:04:17.170Z,17.17
2023-02-13T08:05:13.512Z,17.50
2023-02-13T08:05:58.309Z,17.58
2023-02-13T08:06:49.781Z,16.00
2023-02-13T08:07:34.564Z,17.13
2023-02-13T08:08:23.263Z,15.70
2023-02-13T08:09:39.664Z,15.00
2023-02-13T08:10:51.592Z,15.20
2023-02-13T08:11:58.646Z,15.25
2023-02-13T08:12:55.669Z,15.88
2023-02-13T08:13:39.806Z,15.00
2023-02-13T08:14:29.674Z,16.63
2023-02-13T08:15:23.768Z,17.45
2023-02-13T08:16:10.848Z,17.63
2023-02-13T08:17:04.852Z,16.00
2023-02-13T08:17:49.251Z,19.17
2023-02-13T08:18:47.961Z,17.20
2023-02-13T08:19:38.208Z,16.58
2023-02-13T08:20:26.576Z,16.05
2023-02-13T08:21:10.371Z,17.52
2023-02-13T08:22:03.676Z,16.38
2023-02-13T08:22:50.240Z,15.30
2023-02-13T08:23:38.992Z,14.93
2023-02-13T08:24:23.559Z,14.88
2023-02-13T08:25:08.885Z,14.88
2023-02-13T08:25:50.571Z,16.15
2023-02-13T08:26:41.194Z,14.35
2023-02-13T08:27:28.095Z,13.55
2023-02-13T08:28:11.913Z,15.55
2023-02-13T08:29:16.725Z,15.70
2023-02-13T08:30:03.186Z,15.05
2023-02-13T08:30:47.566Z,14.85
2023-02-13T08:31:38.931Z,15.98
2023-02-13T08:32:24.877Z,16.17
2023-02-13T08:33:06.719Z,17.52
2023-02-13T08:33:48.481Z,18.45
2023-02-13T08:34:30.263Z,17.70
2023-02-13T08:35:12.213Z,18.08
2023-02-13T08:35:53.904Z,16.33
2023-02-13T08:36:47.616Z,18.33
2023-02-13T08:37:35.158Z,16.08
2023-02-13T08:38:30.197Z,18.30
2023-02-13T08:39:14.989Z,18.05
2023-02-13T08:40:02.127Z,16.92
2023-02-13T08:40:48.646Z,16.52
2023-02-13T08:42:15.986Z,16.27
2023-02-13T08:43:09.830Z,15.00
2023-02-13T08:44:13.510Z,13.57
2023-02-13T08:45:07.952Z,13.60
2023-02-13T08:45:56.007Z,18.80
2023-02-13T08:46:53.224Z,15.30
2023-02-13T08:47:38.094Z,15.93
2023-02-13T08:49:23.558Z,14.13
2023-02-13T08:50:12.800Z,14.65
2023-02-13T08:51:04.626Z,15.15
2023-02-13T08:51:49.639Z,14.75
2023-02-13T08:52:36.788Z,14.13
2023-02-13T08:53:35.738Z,14.45
2023-02-13T08:54:37.612Z,14.15
2023-02-13T08:55:29.588Z,13.93
2023-02-13T08:56:20.161Z,13.82
2023-02-13T08:57:11.593Z,14.10
2023-02-13T08:57:55.797Z,12.05
2023-02-13T08:58:44.204Z,12.85
2023-02-13T08:59:28.529Z,13.07
2023-02-13T09:00:21.017Z,13.50
2023-02-13T09:01:15.780Z,13.95
2023-02-13T09:02:10.626Z,12.65
2023-02-13T09:04:29.028Z,12.50
2023-02-13T09:05:27.474Z,13.43
2023-02-13T09:06:21.813Z,12.73
2023-02-13T09:07:09.408Z,14.35
2023-02-13T09:07:53.758Z,15.77
2023-02-13T09:08:42.383Z,14.27
2023-02-13T09:09:37.257Z,17.83
2023-02-13T09:10:33.054Z,15.32
2023-02-13T09:11:19.499Z,15.20
2023-02-13T09:12:15.568Z,14.52
2023-02-13T09:13:09.992Z,14.95
2023-02-13T09:14:00.562Z,15.82
2023-02-13T09:14:54.423Z,15.57
2023-02-13T09:15:58.672Z,13.95
2023-02-13T09:16:48.391Z,13.70
2023-02-13T09:17:48.699Z,14.10
2023-02-13T09:18:41.396Z,14.02
2023-02-13T09:19:25.615Z,13.60
2023-02-13T09:20:12.449Z,12.43
2023-02-13T09:21:17.919Z,13.75
2023-02-13T09:22:05.776Z,13.85
2023-02-13T09:22:52.103Z,13.00
2023-02-13T09:23:41.554Z,13.73
2023-02-13T09:24:36.642Z,14.07
2023-02-13T09:25:51.321Z,14.60
2023-02-13T09:27:04.650Z,14.50
2023-02-13T09:27:57.110Z,13.02
2023-02-13T09:28:59.556Z,13.77
2023-02-13T09:29:47.349Z,13.35
2023-02-13T09:30:39.912Z,11.68
2023-02-13T09:31:40.082Z,12.70
2023-02-13T09:32:35.350Z,12.98
2023-02-13T09:33:38.265Z,11.85
2023-02-13T09:34:32.827Z,11.25
2023-02-13T09:35:27.126Z,12.35
2023-02-13T09:36:23.613Z,13.07
2023-02-13T09:37:43.518Z,11.32
2023-02-13T09:38:33.472Z,11.68
2023-02-13T09:39:30.471Z,11.50
2023-02-13T09:40:31.298Z,11.57
2023-02-13T09:41:42.032Z,12.45
2023-02-13T09:42:39.712Z,11.30
2023-02-13T09:44:05.503Z,12.40
2023-02-13T09:45:11.161Z,11.43
2023-02-13T09:46:43.729Z,13.70
2023-02-13T09:47:34.753Z,12.93
2023-02-13T09:48:31.829Z,12.48
2023-02-13T09:49:35.208Z,12.57
2023-02-13T09:50:25.324Z,11.43
2023-02-13T09:51:28.956Z,11.20
2023-02-13T09:52:41.791Z,11.80
2023-02-13T09:53:37.714Z,12.02
2023-02-13T09:54:32.154Z,14.98
2023-02-13T09:55:30.109Z,14.10
2023-02-13T09:56:19.997Z,13.80
2023-02-13T09:57:15.350Z,14.13
2023-02-13T09:58:38.812Z,13.68
2023-02-13T09:59:35.257Z,12.60
2023-02-13T10:00:39.458Z,13.98
2023-02-13T10:01:52.878Z,15.38
2023-02-13T10:03:13.396Z,14.63
2023-02-13T10:04:30.516Z,14.25
2023-02-13T10:05:32.235Z,12.85
2023-02-13T10:06:30.725Z,12.63
2023-02-13T10:07:30.089Z,13.57
2023-02-13T10:08:53.225Z,12.68
2023-02-13T10:09:37.550Z,11.25
2023-02-13T10:10:34.155Z,13.77
2023-02-13T10:11:43.445Z,15.52
2023-02-13T10:12:53.256Z,11.35
2023-02-13T10:14:01.713Z,12.65
2023-02-13T10:15:02.633Z,11.73
2023-02-13T10:16:02.681Z,11.68
2023-02-13T10:16:55.532Z,12.20
2023-02-13T10:17:42.690Z,11.10
2023-02-13T10:18:41.095Z,11.95
2023-02-13T10:19:43.890Z,10.13
2023-02-13T10:20:38.785Z,11.40
2023-02-13T10:21:28.502Z,12.18
2023-02-13T10:22:22.082Z,13.15
2023-02-13T10:23:19.465Z,12.18
2023-02-13T10:24:09.823Z,10.65
2023-02-13T10:25:16.182Z,10.40
2023-02-13T10:26:13.028Z,12.30
2023-02-13T10:26:56.776Z,12.02
2023-02-13T10:27:44.801Z,11.40
2023-02-13T10:28:39.160Z,10.93
2023-02-13T10:30:05.561Z,11.00
2023-02-13T10:31:03.225Z,12.45
2023-02-13T10:31:48.373Z,11.18
2023-02-13T10:32:43.398Z,10.77
2023-02-13T10:33:32.057Z,12.65
2023-02-13T10:34:17.210Z,12.60
2023-02-13T10:35:02.782Z,11.70
2023-02-13T10:36:10.901Z,11.38
2023-02-13T10:36:52.780Z,10.23
2023-02-13T10:37:36.342Z,9.27
2023-02-13T10:38:20.758Z,10.48
2023-02-13T10:39:13.476Z,10.30
2023-02-13T10:39:55.554Z,9.63
2023-02-13T10:40:40.568Z,9.88
2023-02-13T10:41:30.854Z,10.35
2023-02-13T10:42:47.407Z,11.00
2023-02-13T10:43:34.057Z,10.15
2023-02-13T10:44:49.007Z,10.32
2023-02-13T10:46:07.552Z,11.10
2023-02-13T10:47:19.627Z,11.05
2023-02-13T10:48:17.999Z,10.10
2023-02-13T10:49:57.473Z,9.82
2023-02-13T10:50:55.361Z,9.60
2023-02-13T10:51:54.383Z,10.38
2023-02-13T10:52:42.120Z,10.50
2023-02-13T10:53:35.885Z,11.85
2023-02-13T10:54:32.064Z,11.00
2023-02-13T10:55:19.666Z,9.85
2023-02-13T10:56:23.172Z,9.68
2023-02-13T10:57:18.197Z,9.23
2023-02-13T10:58:07.456Z,9.73
2023-02-13T10:59:04.151Z,11.65
2023-02-13T10:59:58.217Z,12.35
2023-02-13T11:00:55.866Z,12.10
2023-02-13T11:01:37.604Z,10.43
2023-02-13T11:02:29.908Z,9.90
2023-02-13T11:03:31.945Z,11.10
2023-02-13T11:04:17.052Z,10.50
2023-02-13T11:05:14.421Z,10.50
2023-02-13T11:05:58.552Z,9.43
2023-02-13T11:06:55.262Z,11.18
2023-02-13T11:07:39.507Z,10.25
2023-02-13T11:08:28.734Z,10.50
2023-02-13T11:09:13.371Z,10.40
2023-02-13T11:10:00.533Z,10.32
2023-02-13T11:10:45.189Z,10.48
2023-02-13T11:11:36.271Z,10.23
2023-02-13T11:12:31.743Z,10.50
2023-02-13T11:13:17.967Z,10.77
2023-02-13T11:14:08.661Z,10.15
2023-02-13T11:14:55.921Z,8.88
2023-02-13T11:15:37.709Z,9.90
2023-02-13T11:16:19.618Z,9.57
2023-02-13T11:17:05.321Z,10.60
2023-02-13T11:17:47.761Z,9.77
2023-02-13T11:18:34.220Z,10.35
2023-02-13T11:19:22.091Z,10.02
2023-02-13T11:20:27.300Z,9.27
2023-02-13T11:21:14.490Z,9.65
2023-02-13T11:22:01.823Z,9.82
2023-02-13T11:22:43.618Z,9.57
2023-02-13T11:23:38.546Z,8.95
2023-02-13T11:24:26.455Z,8.73
2023-02-13T11:25:22.364Z,10.20
2023-02-13T11:26:10.611Z,8.93